Terminal Aerodrome Forecast
Issued by NWS Tampa Bay Area, FL

Home | Current Version | Previous Version | Text Only | Print | Product List | Glossary On
Versions: 1 2 3 4 5 6 7 8 9 10 11 12
118
FTUS42 KTBW 300532
TAFSRQ
TAF
KSRQ 300532Z 3006/0106 10004KT P6SM SCT050
     FM301300 14007KT P6SM FEW040 SCT250
     FM301700 26011KT P6SM FEW050 FEW250
     FM302100 31010KT P6SM FEW050 SCT250
     FM010200 VRB04KT P6SM FEW030 SCT200=

USA.gov is the U.S. government's official web portal to all federal, state and local government web resources and services.